sensor_id;sensor_type;location;lat;lon;timestamp;temperature;humidity
18575;DHT22;9417;16.484;102.872;2023-11-21T00:00:44;18.90;97.20
18575;DHT22;9417;16.484;102.872;2023-11-21T00:02:52;18.80;96.80
18575;DHT22;9417;16.484;102.872;2023-11-21T00:04:59;18.90;96.00
18575;DHT22;9417;16.484;102.872;2023-11-21T00:07:08;18.80;96.20
18575;DHT22;9417;16.484;102.872;2023-11-21T00:09:15;18.90;96.50
18575;DHT22;9417;16.484;102.872;2023-11-21T00:11:22;18.90;96.80
18575;DHT22;9417;16.484;102.872;2023-11-21T00:13:29;19.00;96.70
18575;DHT22;9417;16.484;102.872;2023-11-21T00:15:37;19.00;96.00
18575;DHT22;9417;16.484;102.872;2023-11-21T00:17:46;19.10;95.70
18575;DHT22;9417;16.484;102.872;2023-11-21T00:19:54;19.10;95.20
18575;DHT22;9417;16.484;102.872;2023-11-21T00:22:01;19.10;95.00
18575;DHT22;9417;16.484;102.872;2023-11-21T00:24:09;19.20;93.40
18575;DHT22;9417;16.484;102.872;2023-11-21T00:26:18;19.20;93.90
18575;DHT22;9417;16.484;102.872;2023-11-21T00:28:34;19.30;92.90
18575;DHT22;9417;16.484;102.872;2023-11-21T00:30:41;19.40;93.00
18575;DHT22;9417;16.484;102.872;2023-11-21T00:32:50;19.40;92.70
18575;DHT22;9417;16.484;102.872;2023-11-21T00:34:57;19.50;92.70
18575;DHT22;9417;16.484;102.872;2023-11-21T00:37:05;19.60;93.40
18575;DHT22;9417;16.484;102.872;2023-11-21T00:39:12;19.60;93.40
18575;DHT22;9417;16.484;102.872;2023-11-21T00:41:19;19.70;93.10
18575;DHT22;9417;16.484;102.872;2023-11-21T00:43:27;19.80;93.10
18575;DHT22;9417;16.484;102.872;2023-11-21T00:45:35;19.80;93.70
18575;DHT22;9417;16.484;102.872;2023-11-21T00:47:42;19.90;91.30
18575;DHT22;9417;16.484;102.872;2023-11-21T00:49:50;20.00;91.20
18575;DHT22;9417;16.484;102.872;2023-11-21T00:51:57;20.10;90.00
18575;DHT22;9417;16.484;102.872;2023-11-21T00:54:05;20.20;90.10
18575;DHT22;9417;16.484;102.872;2023-11-21T00:56:12;20.30;89.60
18575;DHT22;9417;16.484;102.872;2023-11-21T00:58:19;20.40;88.30
18575;DHT22;9417;16.484;102.872;2023-11-21T01:00:26;20.50;88.00
18575;DHT22;9417;16.484;102.872;2023-11-21T01:02:34;20.60;87.50
18575;DHT22;9417;16.484;102.872;2023-11-21T01:04:42;20.60;87.10
18575;DHT22;9417;16.484;102.872;2023-11-21T01:06:51;20.70;86.70
18575;DHT22;9417;16.484;102.872;2023-11-21T01:08:58;20.80;86.10
18575;DHT22;9417;16.484;102.872;2023-11-21T01:11:06;20.90;86.10
18575;DHT22;9417;16.484;102.872;2023-11-21T01:13:15;21.00;86.20
18575;DHT22;9417;16.484;102.872;2023-11-21T01:15:23;21.10;85.80
18575;DHT22;9417;16.484;102.872;2023-11-21T01:17:30;21.20;83.00
18575;DHT22;9417;16.484;102.872;2023-11-21T01:19:39;21.30;84.00
18575;DHT22;9417;16.484;102.872;2023-11-21T01:21:46;21.40;83.50
18575;DHT22;9417;16.484;102.872;2023-11-21T01:23:59;21.50;81.10
18575;DHT22;9417;16.484;102.872;2023-11-21T01:26:07;21.60;81.60
18575;DHT22;9417;16.484;102.872;2023-11-21T01:28:14;21.70;81.10
18575;DHT22;9417;16.484;102.872;2023-11-21T01:30:21;21.80;81.10
18575;DHT22;9417;16.484;102.872;2023-11-21T01:32:28;21.90;81.50
18575;DHT22;9417;16.484;102.872;2023-11-21T01:34:34;22.00;78.20
18575;DHT22;9417;16.484;102.872;2023-11-21T01:36:42;22.10;79.20
18575;DHT22;9417;16.484;102.872;2023-11-21T01:38:49;22.10;78.40
18575;DHT22;9417;16.484;102.872;2023-11-21T01:40:58;22.20;78.50
18575;DHT22;9417;16.484;102.872;2023-11-21T01:43:06;22.30;77.90
18575;DHT22;9417;16.484;102.872;2023-11-21T01:45:14;22.30;78.20
18575;DHT22;9417;16.484;102.872;2023-11-21T01:47:21;22.40;79.20
18575;DHT22;9417;16.484;102.872;2023-11-21T01:49:28;22.40;78.10
18575;DHT22;9417;16.484;102.872;2023-11-21T01:51:36;22.50;76.90
18575;DHT22;9417;16.484;102.872;2023-11-21T01:53:43;22.60;76.30
18575;DHT22;9417;16.484;102.872;2023-11-21T01:55:52;22.70;77.50
18575;DHT22;9417;16.484;102.872;2023-11-21T01:58:04;22.70;76.70
18575;DHT22;9417;16.484;102.872;2023-11-21T02:00:13;22.80;74.90
18575;DHT22;9417;16.484;102.872;2023-11-21T02:02:23;22.90;75.50
18575;DHT22;9417;16.484;102.872;2023-11-21T02:04:31;23.00;72.70
18575;DHT22;9417;16.484;102.872;2023-11-21T02:06:38;23.00;73.00
18575;DHT22;9417;16.484;102.872;2023-11-21T02:08:45;23.10;72.30
18575;DHT22;9417;16.484;102.872;2023-11-21T02:10:53;23.20;73.00
18575;DHT22;9417;16.484;102.872;2023-11-21T02:13:02;23.30;70.80
18575;DHT22;9417;16.484;102.872;2023-11-21T02:15:11;23.40;70.00
18575;DHT22;9417;16.484;102.872;2023-11-21T02:17:25;23.40;69.90
18575;DHT22;9417;16.484;102.872;2023-11-21T02:19:33;23.50;69.80
18575;DHT22;9417;16.484;102.872;2023-11-21T02:21:40;23.60;70.30
18575;DHT22;9417;16.484;102.872;2023-11-21T02:23:51;23.60;70.20
18575;DHT22;9417;16.484;102.872;2023-11-21T02:25:58;23.80;70.00
18575;DHT22;9417;16.484;102.872;2023-11-21T02:28:08;23.80;69.10
18575;DHT22;9417;16.484;102.872;2023-11-21T02:30:17;23.90;66.30
18575;DHT22;9417;16.484;102.872;2023-11-21T02:32:25;24.00;66.60
18575;DHT22;9417;16.484;102.872;2023-11-21T02:34:32;24.10;66.80
18575;DHT22;9417;16.484;102.872;2023-11-21T02:36:39;24.10;66.30
18575;DHT22;9417;16.484;102.872;2023-11-21T02:38:49;24.10;66.00
18575;DHT22;9417;16.484;102.872;2023-11-21T02:40:58;24.20;66.70
18575;DHT22;9417;16.484;102.872;2023-11-21T02:43:05;24.20;67.10
18575;DHT22;9417;16.484;102.872;2023-11-21T02:45:12;24.30;64.00
18575;DHT22;9417;16.484;102.872;2023-11-21T02:47:21;24.40;65.40
18575;DHT22;9417;16.484;102.872;2023-11-21T02:49:28;24.40;64.80
18575;DHT22;9417;16.484;102.872;2023-11-21T02:51:36;24.40;64.70
18575;DHT22;9417;16.484;102.872;2023-11-21T02:53:44;24.50;63.30
18575;DHT22;9417;16.484;102.872;2023-11-21T02:55:53;24.60;64.70
18575;DHT22;9417;16.484;102.872;2023-11-21T02:58:02;24.70;65.70
18575;DHT22;9417;16.484;102.872;2023-11-21T03:00:11;24.80;64.70
18575;DHT22;9417;16.484;102.872;2023-11-21T03:02:20;24.90;63.30
18575;DHT22;9417;16.484;102.872;2023-11-21T03:04:27;25.10;63.40
18575;DHT22;9417;16.484;102.872;2023-11-21T03:06:37;25.20;61.50
18575;DHT22;9417;16.484;102.872;2023-11-21T03:08:45;25.30;62.00
18575;DHT22;9417;16.484;102.872;2023-11-21T03:10:54;25.30;62.60
18575;DHT22;9417;16.484;102.872;2023-11-21T03:13:01;25.40;61.10
18575;DHT22;9417;16.484;102.872;2023-11-21T03:15:09;25.40;61.80
18575;DHT22;9417;16.484;102.872;2023-11-21T03:17:17;25.50;61.90
18575;DHT22;9417;16.484;102.872;2023-11-21T03:19:24;25.40;62.60
18575;DHT22;9417;16.484;102.872;2023-11-21T03:21:31;25.50;61.20
18575;DHT22;9417;16.484;102.872;2023-11-21T03:23:38;25.50;61.40
18575;DHT22;9417;16.484;102.872;2023-11-21T03:25:46;25.50;59.50
18575;DHT22;9417;16.484;102.872;2023-11-21T03:27:55;25.60;59.40
18575;DHT22;9417;16.484;102.872;2023-11-21T03:30:02;25.80;57.40
18575;DHT22;9417;16.484;102.872;2023-11-21T03:32:11;26.00;55.10
18575;DHT22;9417;16.484;102.872;2023-11-21T03:34:24;26.10;57.30
18575;DHT22;9417;16.484;102.872;2023-11-21T03:36:31;26.10;56.00
18575;DHT22;9417;16.484;102.872;2023-11-21T03:38:38;26.20;57.00
18575;DHT22;9417;16.484;102.872;2023-11-21T03:40:45;26.20;57.20
18575;DHT22;9417;16.484;102.872;2023-11-21T03:42:55;26.30;54.30
18575;DHT22;9417;16.484;102.872;2023-11-21T03:45:02;26.40;54.50
18575;DHT22;9417;16.484;102.872;2023-11-21T03:47:08;26.50;55.20
18575;DHT22;9417;16.484;102.872;2023-11-21T03:49:16;26.70;52.20
18575;DHT22;9417;16.484;102.872;2023-11-21T03:51:23;26.80;53.80
18575;DHT22;9417;16.484;102.872;2023-11-21T03:53:31;26.90;53.50
18575;DHT22;9417;16.484;102.872;2023-11-21T03:55:38;27.00;53.00
18575;DHT22;9417;16.484;102.872;2023-11-21T03:57:46;27.00;53.30
18575;DHT22;9417;16.484;102.872;2023-11-21T03:59:57;27.00;52.20
18575;DHT22;9417;16.484;102.872;2023-11-21T04:02:14;27.10;52.20
18575;DHT22;9417;16.484;102.872;2023-11-21T04:04:21;27.20;50.80
18575;DHT22;9417;16.484;102.872;2023-11-21T04:06:29;27.20;51.10
18575;DHT22;9417;16.484;102.872;2023-11-21T04:08:37;27.30;51.10
18575;DHT22;9417;16.484;102.872;2023-11-21T04:10:44;27.30;49.60
18575;DHT22;9417;16.484;102.872;2023-11-21T04:12:50;27.40;50.80
18575;DHT22;9417;16.484;102.872;2023-11-21T04:14:59;27.50;51.10
18575;DHT22;9417;16.484;102.872;2023-11-21T04:17:05;27.40;49.00
18575;DHT22;9417;16.484;102.872;2023-11-21T04:19:13;27.50;49.50
18575;DHT22;9417;16.484;102.872;2023-11-21T04:21:21;27.60;48.90
18575;DHT22;9417;16.484;102.872;2023-11-21T04:23:28;27.60;49.10
18575;DHT22;9417;16.484;102.872;2023-11-21T04:25:37;27.70;48.90
18575;DHT22;9417;16.484;102.872;2023-11-21T04:27:45;27.80;49.10
18575;DHT22;9417;16.484;102.872;2023-11-21T04:29:52;27.80;49.70
18575;DHT22;9417;16.484;102.872;2023-11-21T04:32:01;27.90;49.70
18575;DHT22;9417;16.484;102.872;2023-11-21T04:34:08;27.90;50.50
18575;DHT22;9417;16.484;102.872;2023-11-21T04:36:15;27.90;49.60
18575;DHT22;9417;16.484;102.872;2023-11-21T04:38:22;27.90;50.50
18575;DHT22;9417;16.484;102.872;2023-11-21T04:40:30;28.00;49.60
18575;DHT22;9417;16.484;102.872;2023-11-21T04:42:36;28.00;49.10
18575;DHT22;9417;16.484;102.872;2023-11-21T04:44:44;28.10;48.00
18575;DHT22;9417;16.484;102.872;2023-11-21T04:46:51;28.10;48.30
18575;DHT22;9417;16.484;102.872;2023-11-21T04:49:00;28.10;46.70
18575;DHT22;9417;16.484;102.872;2023-11-21T04:51:07;28.10;47.80
18575;DHT22;9417;16.484;102.872;2023-11-21T04:53:14;28.20;47.70
18575;DHT22;9417;16.484;102.872;2023-11-21T04:55:21;28.10;48.00
18575;DHT22;9417;16.484;102.872;2023-11-21T04:57:27;28.20;47.80
18575;DHT22;9417;16.484;102.872;2023-11-21T04:59:34;28.20;48.80
18575;DHT22;9417;16.484;102.872;2023-11-21T05:01:40;28.20;47.30
18575;DHT22;9417;16.484;102.872;2023-11-21T05:03:48;28.10;47.30
18575;DHT22;9417;16.484;102.872;2023-11-21T05:05:57;28.20;48.40
18575;DHT22;9417;16.484;102.872;2023-11-21T05:08:04;28.20;48.00
18575;DHT22;9417;16.484;102.872;2023-11-21T05:10:12;28.20;46.80
18575;DHT22;9417;16.484;102.872;2023-11-21T05:12:19;28.30;47.90
18575;DHT22;9417;16.484;102.872;2023-11-21T05:14:27;28.40;48.30
18575;DHT22;9417;16.484;102.872;2023-11-21T05:16:34;28.40;47.10
18575;DHT22;9417;16.484;102.872;2023-11-21T05:18:40;28.40;48.30
18575;DHT22;9417;16.484;102.872;2023-11-21T05:20:47;28.40;48.00
18575;DHT22;9417;16.484;102.872;2023-11-21T05:22:56;28.60;48.40
18575;DHT22;9417;16.484;102.872;2023-11-21T05:25:04;28.60;47.30
18575;DHT22;9417;16.484;102.872;2023-11-21T05:27:11;28.70;47.40
18575;DHT22;9417;16.484;102.872;2023-11-21T05:29:19;28.70;46.70
18575;DHT22;9417;16.484;102.872;2023-11-21T05:31:26;28.80;46.40
18575;DHT22;9417;16.484;102.872;2023-11-21T05:33:32;28.70;47.10
18575;DHT22;9417;16.484;102.872;2023-11-21T05:35:39;28.80;46.70
18575;DHT22;9417;16.484;102.872;2023-11-21T05:37:46;28.80;47.80
18575;DHT22;9417;16.484;102.872;2023-11-21T05:39:55;28.80;46.40
18575;DHT22;9417;16.484;102.872;2023-11-21T05:42:01;28.80;46.10
18575;DHT22;9417;16.484;102.872;2023-11-21T05:44:09;28.70;45.00
18575;DHT22;9417;16.484;102.872;2023-11-21T05:46:16;28.70;46.10
18575;DHT22;9417;16.484;102.872;2023-11-21T05:48:24;28.70;44.60
18575;DHT22;9417;16.484;102.872;2023-11-21T05:50:31;28.80;45.10
18575;DHT22;9417;16.484;102.872;2023-11-21T05:52:38;28.90;46.90
18575;DHT22;9417;16.484;102.872;2023-11-21T05:54:44;28.90;45.10
18575;DHT22;9417;16.484;102.872;2023-11-21T05:56:53;28.90;44.10
18575;DHT22;9417;16.484;102.872;2023-11-21T05:59:01;29.00;43.50
18575;DHT22;9417;16.484;102.872;2023-11-21T06:01:08;29.00;44.30
18575;DHT22;9417;16.484;102.872;2023-11-21T06:03:17;29.10;44.80
18575;DHT22;9417;16.484;102.872;2023-11-21T06:05:25;29.20;45.50
18575;DHT22;9417;16.484;102.872;2023-11-21T06:07:32;29.30;45.70
18575;DHT22;9417;16.484;102.872;2023-11-21T06:09:39;29.30;43.50
18575;DHT22;9417;16.484;102.872;2023-11-21T06:11:47;29.20;43.50
18575;DHT22;9417;16.484;102.872;2023-11-21T06:13:56;29.30;44.30
18575;DHT22;9417;16.484;102.872;2023-11-21T06:16:03;29.30;44.90
18575;DHT22;9417;16.484;102.872;2023-11-21T06:18:10;29.40;44.30
18575;DHT22;9417;16.484;102.872;2023-11-21T06:20:18;29.40;42.50
18575;DHT22;9417;16.484;102.872;2023-11-21T06:22:25;29.30;42.30
18575;DHT22;9417;16.484;102.872;2023-11-21T06:24:32;29.30;42.60
18575;DHT22;9417;16.484;102.872;2023-11-21T06:26:40;29.30;43.20
18575;DHT22;9417;16.484;102.872;2023-11-21T06:28:47;29.40;44.40
18575;DHT22;9417;16.484;102.872;2023-11-21T06:30:57;29.40;44.80
18575;DHT22;9417;16.484;102.872;2023-11-21T06:33:10;29.40;44.10
18575;DHT22;9417;16.484;102.872;2023-11-21T06:35:17;29.40;42.00
18575;DHT22;9417;16.484;102.872;2023-11-21T06:37:23;29.40;41.50
18575;DHT22;9417;16.484;102.872;2023-11-21T06:39:30;29.50;42.10
18575;DHT22;9417;16.484;102.872;2023-11-21T06:41:37;29.50;42.10
18575;DHT22;9417;16.484;102.872;2023-11-21T06:43:44;29.50;42.10
18575;DHT22;9417;16.484;102.872;2023-11-21T06:45:52;29.50;42.50
18575;DHT22;9417;16.484;102.872;2023-11-21T06:48:01;29.50;41.40
18575;DHT22;9417;16.484;102.872;2023-11-21T06:50:09;29.50;41.90
18575;DHT22;9417;16.484;102.872;2023-11-21T06:52:15;29.60;40.60
18575;DHT22;9417;16.484;102.872;2023-11-21T06:54:22;29.50;41.20
18575;DHT22;9417;16.484;102.872;2023-11-21T06:56:30;29.60;42.00
18575;DHT22;9417;16.484;102.872;2023-11-21T06:58:37;29.70;42.40
18575;DHT22;9417;16.484;102.872;2023-11-21T07:00:45;29.70;40.70
18575;DHT22;9417;16.484;102.872;2023-11-21T07:02:57;29.70;41.30
18575;DHT22;9417;16.484;102.872;2023-11-21T07:05:07;29.70;43.20
18575;DHT22;9417;16.484;102.872;2023-11-21T07:07:14;29.60;41.40
18575;DHT22;9417;16.484;102.872;2023-11-21T07:09:21;29.60;39.80
18575;DHT22;9417;16.484;102.872;2023-11-21T07:11:29;29.60;40.00
18575;DHT22;9417;16.484;102.872;2023-11-21T07:13:37;29.60;41.60
18575;DHT22;9417;16.484;102.872;2023-11-21T07:15:44;29.60;41.70
18575;DHT22;9417;16.484;102.872;2023-11-21T07:17:51;29.50;41.00
18575;DHT22;9417;16.484;102.872;2023-11-21T07:19:58;29.50;40.80
18575;DHT22;9417;16.484;102.872;2023-11-21T07:22:10;29.50;41.00
18575;DHT22;9417;16.484;102.872;2023-11-21T07:24:18;29.50;41.30
18575;DHT22;9417;16.484;102.872;2023-11-21T07:26:29;29.40;41.40
18575;DHT22;9417;16.484;102.872;2023-11-21T07:28:37;29.30;41.40
18575;DHT22;9417;16.484;102.872;2023-11-21T07:30:44;29.40;42.40
18575;DHT22;9417;16.484;102.872;2023-11-21T07:32:51;29.40;40.60
18575;DHT22;9417;16.484;102.872;2023-11-21T07:34:58;29.40;42.10
18575;DHT22;9417;16.484;102.872;2023-11-21T07:37:07;29.40;42.30
18575;DHT22;9417;16.484;102.872;2023-11-21T07:39:14;29.30;41.00
18575;DHT22;9417;16.484;102.872;2023-11-21T07:41:21;29.30;40.90
18575;DHT22;9417;16.484;102.872;2023-11-21T07:43:34;29.30;41.20
18575;DHT22;9417;16.484;102.872;2023-11-21T07:45:41;29.30;39.80
18575;DHT22;9417;16.484;102.872;2023-11-21T07:47:50;29.30;40.50
18575;DHT22;9417;16.484;102.872;2023-11-21T07:49:57;29.30;40.40
18575;DHT22;9417;16.484;102.872;2023-11-21T07:52:05;29.30;40.40
18575;DHT22;9417;16.484;102.872;2023-11-21T07:54:14;29.20;41.50
18575;DHT22;9417;16.484;102.872;2023-11-21T07:56:21;29.30;41.20
18575;DHT22;9417;16.484;102.872;2023-11-21T07:58:29;29.30;40.20
18575;DHT22;9417;16.484;102.872;2023-11-21T08:00:38;29.30;40.20
18575;DHT22;9417;16.484;102.872;2023-11-21T08:02:45;29.30;39.70
18575;DHT22;9417;16.484;102.872;2023-11-21T08:04:52;29.20;38.90
18575;DHT22;9417;16.484;102.872;2023-11-21T08:07:01;29.20;38.90
18575;DHT22;9417;16.484;102.872;2023-11-21T08:09:10;29.20;39.50
18575;DHT22;9417;16.484;102.872;2023-11-21T08:11:19;29.20;41.60
18575;DHT22;9417;16.484;102.872;2023-11-21T08:13:27;29.10;42.20
18575;DHT22;9417;16.484;102.872;2023-11-21T08:15:35;29.10;40.40
18575;DHT22;9417;16.484;102.872;2023-11-21T08:17:42;29.10;39.80
18575;DHT22;9417;16.484;102.872;2023-11-21T08:19:50;29.10;40.80
18575;DHT22;9417;16.484;102.872;2023-11-21T08:21:57;29.20;39.40
18575;DHT22;9417;16.484;102.872;2023-11-21T08:24:05;29.10;39.70
18575;DHT22;9417;16.484;102.872;2023-11-21T08:26:18;29.10;41.10
18575;DHT22;9417;16.484;102.872;2023-11-21T08:28:26;29.10;41.20
18575;DHT22;9417;16.484;102.872;2023-11-21T08:30:31;29.00;42.10
18575;DHT22;9417;16.484;102.872;2023-11-21T08:32:39;29.00;41.90
18575;DHT22;9417;16.484;102.872;2023-11-21T08:34:47;28.90;42.30
18575;DHT22;9417;16.484;102.872;2023-11-21T08:36:56;28.90;44.20
18575;DHT22;9417;16.484;102.872;2023-11-21T08:39:03;28.90;44.50
18575;DHT22;9417;16.484;102.872;2023-11-21T08:41:10;28.80;44.80
18575;DHT22;9417;16.484;102.872;2023-11-21T08:43:21;28.80;43.00
18575;DHT22;9417;16.484;102.872;2023-11-21T08:45:29;28.80;42.30
18575;DHT22;9417;16.484;102.872;2023-11-21T08:47:37;28.80;44.30
18575;DHT22;9417;16.484;102.872;2023-11-21T08:49:44;28.70;42.50
18575;DHT22;9417;16.484;102.872;2023-11-21T08:51:51;28.70;40.60
18575;DHT22;9417;16.484;102.872;2023-11-21T08:54:00;28.80;42.20
18575;DHT22;9417;16.484;102.872;2023-11-21T08:56:13;28.80;41.80
18575;DHT22;9417;16.484;102.872;2023-11-21T08:58:22;28.80;41.50
18575;DHT22;9417;16.484;102.872;2023-11-21T09:00:29;28.90;43.60
18575;DHT22;9417;16.484;102.872;2023-11-21T09:02:36;28.80;43.30
18575;DHT22;9417;16.484;102.872;2023-11-21T09:04:44;28.70;43.50
18575;DHT22;9417;16.484;102.872;2023-11-21T09:06:51;28.70;42.30
18575;DHT22;9417;16.484;102.872;2023-11-21T09:08:58;28.70;41.90
18575;DHT22;9417;16.484;102.872;2023-11-21T09:11:05;28.70;42.50
18575;DHT22;9417;16.484;102.872;2023-11-21T09:13:12;28.70;45.20
18575;DHT22;9417;16.484;102.872;2023-11-21T09:15:23;28.70;43.50
18575;DHT22;9417;16.484;102.872;2023-11-21T09:17:30;28.60;44.90
18575;DHT22;9417;16.484;102.872;2023-11-21T09:19:36;28.50;46.40
18575;DHT22;9417;16.484;102.872;2023-11-21T09:21:43;28.50;46.20
18575;DHT22;9417;16.484;102.872;2023-11-21T09:23:50;28.40;46.70
18575;DHT22;9417;16.484;102.872;2023-11-21T09:25:58;28.30;46.00
18575;DHT22;9417;16.484;102.872;2023-11-21T09:28:06;28.20;46.90
18575;DHT22;9417;16.484;102.872;2023-11-21T09:30:14;28.10;48.10
18575;DHT22;9417;16.484;102.872;2023-11-21T09:32:23;28.00;46.40
18575;DHT22;9417;16.484;102.872;2023-11-21T09:34:30;28.00;47.30
18575;DHT22;9417;16.484;102.872;2023-11-21T09:36:37;28.00;48.70
18575;DHT22;9417;16.484;102.872;2023-11-21T09:38:44;27.90;48.40
18575;DHT22;9417;16.484;102.872;2023-11-21T09:40:54;27.90;48.40
18575;DHT22;9417;16.484;102.872;2023-11-21T09:43:07;27.80;47.90
18575;DHT22;9417;16.484;102.872;2023-11-21T09:45:25;27.80;47.70
18575;DHT22;9417;16.484;102.872;2023-11-21T09:47:37;27.70;47.80
18575;DHT22;9417;16.484;102.872;2023-11-21T09:49:48;27.70;48.30
18575;DHT22;9417;16.484;102.872;2023-11-21T09:51:56;27.80;48.60
18575;DHT22;9417;16.484;102.872;2023-11-21T09:54:04;27.70;48.30
18575;DHT22;9417;16.484;102.872;2023-11-21T09:56:13;27.70;48.20
18575;DHT22;9417;16.484;102.872;2023-11-21T09:58:23;27.60;49.20
18575;DHT22;9417;16.484;102.872;2023-11-21T10:00:31;27.60;49.60
18575;DHT22;9417;16.484;102.872;2023-11-21T10:02:40;27.60;50.50
18575;DHT22;9417;16.484;102.872;2023-11-21T10:04:47;27.50;50.60
18575;DHT22;9417;16.484;102.872;2023-11-21T10:06:55;27.50;51.10
18575;DHT22;9417;16.484;102.872;2023-11-21T10:09:02;27.40;51.30
18575;DHT22;9417;16.484;102.872;2023-11-21T10:11:18;27.30;51.50
18575;DHT22;9417;16.484;102.872;2023-11-21T10:13:29;27.30;53.80
18575;DHT22;9417;16.484;102.872;2023-11-21T10:15:42;27.20;55.40
18575;DHT22;9417;16.484;102.872;2023-11-21T10:17:54;27.20;57.90
18575;DHT22;9417;16.484;102.872;2023-11-21T10:20:05;27.10;58.50
18575;DHT22;9417;16.484;102.872;2023-11-21T10:22:20;27.00;61.00
18575;DHT22;9417;16.484;102.872;2023-11-21T10:24:30;26.90;63.10
18575;DHT22;9417;16.484;102.872;2023-11-21T10:26:51;26.80;63.30
18575;DHT22;9417;16.484;102.872;2023-11-21T10:28:59;26.70;63.90
18575;DHT22;9417;16.484;102.872;2023-11-21T10:31:08;26.60;61.10
18575;DHT22;9417;16.484;102.872;2023-11-21T10:33:17;26.50;65.40
18575;DHT22;9417;16.484;102.872;2023-11-21T10:35:43;26.40;65.90
18575;DHT22;9417;16.484;102.872;2023-11-21T10:38:01;26.20;67.90
18575;DHT22;9417;16.484;102.872;2023-11-21T10:40:10;26.10;67.60
18575;DHT22;9417;16.484;102.872;2023-11-21T10:42:18;26.00;69.90
18575;DHT22;9417;16.484;102.872;2023-11-21T10:44:29;25.90;70.30
18575;DHT22;9417;16.484;102.872;2023-11-21T10:46:39;25.80;70.30
18575;DHT22;9417;16.484;102.872;2023-11-21T10:48:50;25.70;68.70
18575;DHT22;9417;16.484;102.872;2023-11-21T10:50:59;25.60;70.70
18575;DHT22;9417;16.484;102.872;2023-11-21T10:53:09;25.50;71.50
18575;DHT22;9417;16.484;102.872;2023-11-21T10:55:20;25.40;71.90
18575;DHT22;9417;16.484;102.872;2023-11-21T10:57:29;25.30;64.20
18575;DHT22;9417;16.484;102.872;2023-11-21T10:59:37;25.30;64.40
18575;DHT22;9417;16.484;102.872;2023-11-21T11:01:45;25.20;66.60
18575;DHT22;9417;16.484;102.872;2023-11-21T11:03:56;25.20;67.80
18575;DHT22;9417;16.484;102.872;2023-11-21T11:06:04;25.20;68.90
18575;DHT22;9417;16.484;102.872;2023-11-21T11:08:16;25.10;70.60
18575;DHT22;9417;16.484;102.872;2023-11-21T11:10:24;25.00;70.70
18575;DHT22;9417;16.484;102.872;2023-11-21T11:12:31;24.90;70.60
18575;DHT22;9417;16.484;102.872;2023-11-21T11:14:41;24.90;71.60
18575;DHT22;9417;16.484;102.872;2023-11-21T11:16:49;24.80;70.00
18575;DHT22;9417;16.484;102.872;2023-11-21T11:18:59;24.70;70.80
18575;DHT22;9417;16.484;102.872;2023-11-21T11:21:14;24.70;71.90
18575;DHT22;9417;16.484;102.872;2023-11-21T11:23:36;24.60;72.20
18575;DHT22;9417;16.484;102.872;2023-11-21T11:26:04;24.60;72.40
18575;DHT22;9417;16.484;102.872;2023-11-21T11:28:17;24.50;72.80
18575;DHT22;9417;16.484;102.872;2023-11-21T11:30:35;24.50;73.50
18575;DHT22;9417;16.484;102.872;2023-11-21T11:32:52;24.40;74.20
18575;DHT22;9417;16.484;102.872;2023-11-21T11:35:07;24.40;74.50
18575;DHT22;9417;16.484;102.872;2023-11-21T11:37:20;24.30;73.70
18575;DHT22;9417;16.484;102.872;2023-11-21T11:39:34;24.20;70.10
18575;DHT22;9417;16.484;102.872;2023-11-21T11:41:44;24.10;69.90
18575;DHT22;9417;16.484;102.872;2023-11-21T11:43:51;24.20;73.80
18575;DHT22;9417;16.484;102.872;2023-11-21T11:45:59;24.10;76.10
18575;DHT22;9417;16.484;102.872;2023-11-21T11:48:08;24.00;70.80
18575;DHT22;9417;16.484;102.872;2023-11-21T11:50:21;23.90;70.00
18575;DHT22;9417;16.484;102.872;2023-11-21T11:52:39;23.80;71.70
18575;DHT22;9417;16.484;102.872;2023-11-21T11:54:49;23.80;75.60
18575;DHT22;9417;16.484;102.872;2023-11-21T11:56:57;23.80;77.30
18575;DHT22;9417;16.484;102.872;2023-11-21T11:59:06;23.70;77.00
18575;DHT22;9417;16.484;102.872;2023-11-21T12:01:15;23.70;77.60
18575;DHT22;9417;16.484;102.872;2023-11-21T12:03:22;23.70;78.10
18575;DHT22;9417;16.484;102.872;2023-11-21T12:05:32;23.60;76.30
18575;DHT22;9417;16.484;102.872;2023-11-21T12:07:43;23.60;79.70
18575;DHT22;9417;16.484;102.872;2023-11-21T12:09:50;23.50;78.30
18575;DHT22;9417;16.484;102.872;2023-11-21T12:11:58;23.50;79.00
18575;DHT22;9417;16.484;102.872;2023-11-21T12:14:07;23.50;77.30
18575;DHT22;9417;16.484;102.872;2023-11-21T12:16:14;23.30;75.00
18575;DHT22;9417;16.484;102.872;2023-11-21T12:18:21;23.30;75.90
18575;DHT22;9417;16.484;102.872;2023-11-21T12:20:33;23.20;75.60
18575;DHT22;9417;16.484;102.872;2023-11-21T12:22:44;23.20;76.70
18575;DHT22;9417;16.484;102.872;2023-11-21T12:24:53;23.20;76.10
18575;DHT22;9417;16.484;102.872;2023-11-21T12:27:01;23.10;75.60
18575;DHT22;9417;16.484;102.872;2023-11-21T12:29:09;23.20;76.90
18575;DHT22;9417;16.484;102.872;2023-11-21T12:31:19;23.10;78.30
18575;DHT22;9417;16.484;102.872;2023-11-21T12:33:28;23.00;79.50
18575;DHT22;9417;16.484;102.872;2023-11-21T12:35:36;23.00;80.10
18575;DHT22;9417;16.484;102.872;2023-11-21T12:37:45;23.00;80.90
18575;DHT22;9417;16.484;102.872;2023-11-21T12:39:52;22.90;80.80
18575;DHT22;9417;16.484;102.872;2023-11-21T12:41:59;22.90;81.40
18575;DHT22;9417;16.484;102.872;2023-11-21T12:44:11;22.90;81.00
18575;DHT22;9417;16.484;102.872;2023-11-21T12:46:20;22.90;80.30
18575;DHT22;9417;16.484;102.872;2023-11-21T12:48:27;22.70;80.90
18575;DHT22;9417;16.484;102.872;2023-11-21T12:50:38;22.60;81.90
18575;DHT22;9417;16.484;102.872;2023-11-21T12:52:46;22.50;82.60
18575;DHT22;9417;16.484;102.872;2023-11-21T12:54:54;22.40;83.20
18575;DHT22;9417;16.484;102.872;2023-11-21T12:57:01;22.40;84.20
18575;DHT22;9417;16.484;102.872;2023-11-21T12:59:10;22.30;84.60
18575;DHT22;9417;16.484;102.872;2023-11-21T13:01:20;22.40;85.60
18575;DHT22;9417;16.484;102.872;2023-11-21T13:03:27;22.40;85.10
18575;DHT22;9417;16.484;102.872;2023-11-21T13:05:38;22.30;85.00
18575;DHT22;9417;16.484;102.872;2023-11-21T13:07:44;22.30;86.00
18575;DHT22;9417;16.484;102.872;2023-11-21T13:09:53;22.20;86.40
18575;DHT22;9417;16.484;102.872;2023-11-21T13:12:02;22.20;86.50
18575;DHT22;9417;16.484;102.872;2023-11-21T13:14:12;22.20;86.00
18575;DHT22;9417;16.484;102.872;2023-11-21T13:16:19;22.20;86.20
18575;DHT22;9417;16.484;102.872;2023-11-21T13:18:29;22.30;86.90